createdAt,value
2022-08-30T00:01:05.792Z,70.62
2022-08-30T00:03:52.190Z,70.61
2022-08-30T00:06:37.470Z,70.72
2022-08-30T00:09:22.825Z,71.03
2022-08-30T00:12:08.945Z,70.92
2022-08-30T00:14:54.138Z,71.36
2022-08-30T00:17:40.331Z,71.36
2022-08-30T00:20:28.209Z,71.55
2022-08-30T00:23:14.268Z,71.76
2022-08-30T00:26:00.637Z,71.72
2022-08-30T00:28:45.602Z,71.77
2022-08-30T00:31:30.913Z,71.84
2022-08-30T00:34:16.647Z,71.85
2022-08-30T00:37:02.218Z,71.76
2022-08-30T00:39:48.400Z,72.10
2022-08-30T00:42:33.821Z,72.22
2022-08-30T00:45:24.294Z,72.42
2022-08-30T00:48:09.675Z,72.86
2022-08-30T00:51:00.296Z,72.89
2022-08-30T00:53:50.696Z,72.65
2022-08-30T00:56:36.256Z,72.53
2022-08-30T00:59:24.218Z,72.67
2022-08-30T01:02:10.297Z,72.80
2022-08-30T01:04:56.053Z,72.59
2022-08-30T01:07:42.133Z,72.97
2022-08-30T01:10:27.447Z,72.69
2022-08-30T01:13:14.322Z,73.12
2022-08-30T01:16:00.422Z,73.14
2022-08-30T01:18:47.945Z,73.00
2022-08-30T01:21:45.573Z,73.34
2022-08-30T01:24:31.495Z,73.58
2022-08-30T01:27:17.894Z,73.51
2022-08-30T01:30:04.204Z,73.74
2022-08-30T01:32:49.485Z,73.90
2022-08-30T01:35:58.305Z,74.13
2022-08-30T01:38:48.703Z,73.91
2022-08-30T01:41:36.120Z,74.07
2022-08-30T01:44:21.438Z,74.07
2022-08-30T01:47:06.631Z,74.21
2022-08-30T01:49:52.188Z,74.82
2022-08-30T01:52:37.556Z,74.48
2022-08-30T01:55:23.190Z,74.80
2022-08-30T01:58:08.195Z,74.78
2022-08-30T02:00:53.729Z,75.08
2022-08-30T02:03:40.375Z,74.93
2022-08-30T02:06:26.161Z,74.95
2022-08-30T02:09:12.444Z,75.10
2022-08-30T02:11:57.907Z,75.20
2022-08-30T02:14:43.662Z,75.08
2022-08-30T02:17:28.901Z,75.32
2022-08-30T02:20:13.926Z,75.21
2022-08-30T02:23:01.394Z,75.10
2022-08-30T02:25:47.068Z,75.52
2022-08-30T02:28:32.522Z,75.55
2022-08-30T02:31:20.974Z,75.73
2022-08-30T02:34:06.404Z,75.39
2022-08-30T02:36:51.748Z,75.43
2022-08-30T02:39:37.070Z,75.60
2022-08-30T02:42:22.310Z,75.45
2022-08-30T02:45:08.556Z,76.01
2022-08-30T02:47:53.673Z,76.12
2022-08-30T02:50:43.682Z,75.99
2022-08-30T02:53:29.024Z,76.11
2022-08-30T02:56:15.352Z,76.55
2022-08-30T02:59:00.531Z,76.83
2022-08-30T03:01:45.954Z,76.97
2022-08-30T03:04:31.286Z,76.77
2022-08-30T03:07:16.491Z,76.82
2022-08-30T03:10:02.059Z,77.28
2022-08-30T03:12:47.935Z,77.59
2022-08-30T03:15:35.358Z,77.30
2022-08-30T03:18:21.850Z,77.30
2022-08-30T03:21:12.570Z,77.55
2022-08-30T03:23:57.512Z,77.96
2022-08-30T03:26:46.262Z,78.02
2022-08-30T03:29:31.982Z,78.09
2022-08-30T03:32:17.356Z,78.65
2022-08-30T03:35:02.778Z,78.40
2022-08-30T03:37:49.146Z,79.22
2022-08-30T03:40:41.569Z,79.53
2022-08-30T03:43:27.319Z,80.05
2022-08-30T03:46:14.133Z,79.99
2022-08-30T03:48:59.140Z,80.10
2022-08-30T03:51:44.632Z,80.30
2022-08-30T03:54:29.781Z,80.65
2022-08-30T03:57:20.065Z,80.34
2022-08-30T04:00:07.220Z,80.48
2022-08-30T04:02:52.174Z,80.65
2022-08-30T04:05:37.520Z,80.81
2022-08-30T04:08:23.494Z,81.15
2022-08-30T04:11:09.053Z,81.60
2022-08-30T04:13:56.093Z,81.27
2022-08-30T04:16:41.265Z,81.90
2022-08-30T04:19:26.432Z,81.67
2022-08-30T04:22:12.097Z,81.55
2022-08-30T04:24:56.949Z,81.65
2022-08-30T04:27:42.357Z,81.52
2022-08-30T04:30:28.018Z,81.61
2022-08-30T04:33:14.900Z,81.50
2022-08-30T04:36:04.469Z,81.58
2022-08-30T04:38:49.930Z,81.42
2022-08-30T04:41:36.897Z,81.69
2022-08-30T04:44:22.039Z,81.99
2022-08-30T04:47:10.077Z,82.15
2022-08-30T04:49:55.110Z,82.71
2022-08-30T04:52:40.559Z,82.90
2022-08-30T04:55:25.862Z,82.67
2022-08-30T04:58:11.206Z,82.45
2022-08-30T05:00:56.066Z,82.45
2022-08-30T05:03:41.373Z,82.34
2022-08-30T05:06:28.468Z,82.38
2022-08-30T05:09:13.553Z,82.42
2022-08-30T05:11:58.803Z,82.68
2022-08-30T05:14:43.726Z,83.30
2022-08-30T05:17:30.993Z,83.28
2022-08-30T05:20:17.233Z,84.03
2022-08-30T05:23:03.157Z,84.26
2022-08-30T05:25:48.405Z,84.43
2022-08-30T05:28:34.420Z,84.61
2022-08-30T05:31:22.976Z,84.43
2022-08-30T05:34:08.426Z,84.20
2022-08-30T05:36:53.829Z,84.08
2022-08-30T05:39:51.034Z,84.58
2022-08-30T05:42:38.144Z,84.59
2022-08-30T05:45:23.185Z,85.32
2022-08-30T05:48:08.438Z,85.74
2022-08-30T05:51:03.049Z,86.06
2022-08-30T05:53:49.954Z,86.43
2022-08-30T05:56:37.657Z,86.31
2022-08-30T05:59:22.950Z,86.27
2022-08-30T06:02:08.475Z,86.30
2022-08-30T06:04:53.676Z,86.11
2022-08-30T06:07:39.622Z,86.34
2022-08-30T06:10:24.706Z,87.28
2022-08-30T06:13:09.761Z,87.62
2022-08-30T06:15:55.132Z,87.35
2022-08-30T06:18:40.704Z,87.46
2022-08-30T06:21:29.244Z,88.48
2022-08-30T06:24:14.701Z,89.46
2022-08-30T06:26:59.878Z,90.50
2022-08-30T06:29:45.129Z,91.62
2022-08-30T06:32:30.420Z,92.81
2022-08-30T06:35:15.801Z,93.15
2022-08-30T06:38:01.075Z,94.06
2022-08-30T06:40:46.166Z,95.09
2022-08-30T06:43:31.773Z,95.33
2022-08-30T06:46:33.489Z,95.15
2022-08-30T06:49:19.027Z,95.86
2022-08-30T06:52:03.984Z,96.01
2022-08-30T06:54:49.754Z,96.57
2022-08-30T06:57:36.663Z,96.92
2022-08-30T07:00:21.996Z,98.68
2022-08-30T07:03:07.285Z,99.25
2022-08-30T07:05:52.381Z,99.41
2022-08-30T07:08:38.370Z,100.00
2022-08-30T07:11:31.426Z,100.00
2022-08-30T07:14:16.710Z,100.00
2022-08-30T07:17:02.135Z,100.00
2022-08-30T07:19:49.412Z,100.00
2022-08-30T07:22:34.621Z,100.00
2022-08-30T07:25:20.027Z,100.00
2022-08-30T07:28:06.563Z,100.00
2022-08-30T07:30:51.570Z,100.00
2022-08-30T07:33:37.112Z,100.00
2022-08-30T07:36:23.362Z,100.00
2022-08-30T07:39:08.325Z,100.00
2022-08-30T07:41:53.742Z,100.00
2022-08-30T07:44:39.046Z,100.00
2022-08-30T07:47:24.385Z,100.00
2022-08-30T07:50:09.646Z,100.00
2022-08-30T07:52:58.478Z,100.00
2022-08-30T07:55:43.753Z,100.00
2022-08-30T07:58:29.639Z,100.00
2022-08-30T08:01:16.140Z,100.00
2022-08-30T08:04:01.414Z,100.00
2022-08-30T08:06:46.913Z,100.00
2022-08-30T08:09:33.884Z,100.00
2022-08-30T08:12:18.805Z,100.00
2022-08-30T08:15:08.173Z,100.00
2022-08-30T08:17:54.477Z,100.00
2022-08-30T08:20:39.626Z,100.00
2022-08-30T08:23:25.264Z,100.00
2022-08-30T08:26:10.410Z,100.00
2022-08-30T08:28:55.746Z,100.00
2022-08-30T08:31:41.663Z,100.00
2022-08-30T08:34:27.251Z,100.00
2022-08-30T08:37:12.096Z,100.00
2022-08-30T08:39:57.491Z,100.00
2022-08-30T08:43:10.792Z,100.00
2022-08-30T08:46:12.408Z,100.00
2022-08-30T08:49:03.993Z,100.00
2022-08-30T08:52:07.785Z,100.00
2022-08-30T08:54:59.362Z,100.00
2022-08-30T08:57:44.809Z,100.00
2022-08-30T09:00:32.321Z,100.00
2022-08-30T09:03:20.409Z,100.00
2022-08-30T09:06:48.625Z,100.00
2022-08-30T09:09:37.512Z,100.00
2022-08-30T09:12:22.970Z,100.00
2022-08-30T09:15:10.545Z,100.00
2022-08-30T09:18:04.956Z,100.00
2022-08-30T09:20:51.537Z,100.00
2022-08-30T09:23:36.739Z,100.00
2022-08-30T09:26:33.709Z,100.00
2022-08-30T09:29:19.909Z,100.00
2022-08-30T09:32:24.577Z,100.00
2022-08-30T09:35:18.012Z,100.00
2022-08-30T09:38:13.101Z,100.00
2022-08-30T09:41:22.756Z,100.00
2022-08-30T09:44:21.261Z,100.00
2022-08-30T09:47:23.550Z,100.00
2022-08-30T09:50:24.303Z,100.00
2022-08-30T09:53:19.900Z,100.00
2022-08-30T09:56:16.650Z,100.00
2022-08-30T09:59:07.949Z,100.00
2022-08-30T10:02:02.837Z,100.00
2022-08-30T10:05:21.561Z,100.00
2022-08-30T10:08:09.750Z,100.00
2022-08-30T10:11:10.712Z,100.00
2022-08-30T10:14:36.703Z,100.00
2022-08-30T10:17:59.661Z,98.04
2022-08-30T10:21:13.440Z,97.00
2022-08-30T10:27:28.893Z,93.94
2022-08-30T10:30:17.181Z,92.51
2022-08-30T10:33:10.231Z,89.50
2022-08-30T10:35:59.873Z,88.33
2022-08-30T10:38:50.034Z,88.10
2022-08-30T10:41:44.182Z,87.22
2022-08-30T10:44:37.890Z,85.18
2022-08-30T10:47:35.410Z,85.44
2022-08-30T10:50:41.035Z,85.64
2022-08-30T10:53:37.161Z,84.26
2022-08-30T10:56:26.949Z,83.92
2022-08-30T10:59:12.173Z,83.67
2022-08-30T11:02:06.420Z,81.56
2022-08-30T11:05:11.189Z,79.58
2022-08-30T11:08:03.561Z,77.33
2022-08-30T11:11:14.042Z,76.17
2022-08-30T11:14:05.895Z,75.04
2022-08-30T11:16:54.776Z,75.69
2022-08-30T11:19:41.361Z,75.29
2022-08-30T11:22:32.485Z,75.29
2022-08-30T11:25:58.000Z,74.94
2022-08-30T11:28:46.444Z,74.11
2022-08-30T11:31:41.215Z,73.12
2022-08-30T11:34:45.197Z,71.46
2022-08-30T11:37:41.204Z,70.03
2022-08-30T11:40:26.563Z,67.67
2022-08-30T11:43:44.358Z,66.30
2022-08-30T11:46:29.474Z,66.70
2022-08-30T11:49:14.348Z,66.73
2022-08-30T11:52:27.568Z,65.34
2022-08-30T11:55:38.530Z,65.98
2022-08-30T11:58:44.042Z,65.95
2022-08-30T12:01:51.108Z,65.74
2022-08-30T12:04:45.746Z,63.32
2022-08-30T12:07:58.349Z,62.10
2022-08-30T12:10:47.446Z,61.82
2022-08-30T12:13:38.062Z,61.21
2022-08-30T12:16:36.829Z,60.52
2022-08-30T12:19:23.966Z,60.22
2022-08-30T12:22:17.248Z,59.48
2022-08-30T12:25:13.546Z,59.85
2022-08-30T12:28:16.972Z,60.84
2022-08-30T12:31:18.618Z,59.71
2022-08-30T12:34:04.021Z,58.73
2022-08-30T12:36:58.492Z,58.36
2022-08-30T12:39:44.602Z,59.13
2022-08-30T12:42:31.869Z,56.78
2022-08-30T12:45:20.930Z,56.04
2022-08-30T12:48:16.017Z,56.20
2022-08-30T12:51:01.925Z,55.96
2022-08-30T12:53:47.113Z,57.23
2022-08-30T12:57:14.080Z,57.15
2022-08-30T13:00:10.836Z,56.99
2022-08-30T13:03:00.151Z,55.15
2022-08-30T13:05:47.991Z,55.70
2022-08-30T13:08:51.636Z,56.19
2022-08-30T13:11:37.585Z,56.28
2022-08-30T13:14:30.430Z,54.15
2022-08-30T13:17:28.664Z,53.34
2022-08-30T13:20:16.578Z,52.63
2022-08-30T13:23:05.854Z,50.35
2022-08-30T13:25:51.093Z,50.57
2022-08-30T13:28:50.644Z,48.71
2022-08-30T13:31:36.989Z,48.78
2022-08-30T13:34:25.036Z,47.77
2022-08-30T13:40:24.338Z,47.64
2022-08-30T13:43:09.505Z,46.55
2022-08-30T13:45:54.871Z,45.67
2022-08-30T13:48:40.189Z,44.79
2022-08-30T13:51:26.272Z,43.11
2022-08-30T13:54:11.384Z,44.39
2022-08-30T13:56:57.621Z,42.44
2022-08-30T13:59:43.083Z,41.20
2022-08-30T14:02:42.243Z,40.61
2022-08-30T14:05:51.508Z,41.10
2022-08-30T14:08:48.251Z,41.63
2022-08-30T14:11:34.981Z,42.30
2022-08-30T14:14:34.580Z,42.82
2022-08-30T14:17:30.346Z,41.46
2022-08-30T14:20:17.782Z,41.43
2022-08-30T14:23:03.001Z,41.60
2022-08-30T14:25:53.824Z,42.43
2022-08-30T14:28:39.363Z,42.54
2022-08-30T14:31:24.725Z,42.15
2022-08-30T14:34:11.611Z,41.67
2022-08-30T14:36:56.901Z,42.40
2022-08-30T14:39:42.729Z,44.17
2022-08-30T14:42:28.264Z,44.08
2022-08-30T14:45:13.523Z,45.45
2022-08-30T14:47:58.876Z,45.00
2022-08-30T14:50:44.198Z,44.00
2022-08-30T14:53:29.149Z,44.06
2022-08-30T14:56:16.835Z,43.63
2022-08-30T14:59:05.718Z,43.35
2022-08-30T15:01:51.597Z,44.00
2022-08-30T15:04:36.871Z,43.67
2022-08-30T15:07:22.942Z,44.52
2022-08-30T15:10:09.583Z,44.95
2022-08-30T15:12:54.781Z,44.74
2022-08-30T15:15:42.630Z,44.98
2022-08-30T15:18:27.840Z,45.97
2022-08-30T15:21:12.952Z,45.96
2022-08-30T15:24:00.830Z,45.47
2022-08-30T15:26:46.762Z,46.07
2022-08-30T15:29:33.025Z,45.05
2022-08-30T15:32:18.206Z,45.37
2022-08-30T15:35:04.413Z,45.07
2022-08-30T15:37:49.559Z,45.75
2022-08-30T15:40:35.241Z,46.20
2022-08-30T15:43:20.357Z,46.24
2022-08-30T15:46:16.820Z,45.77
2022-08-30T15:49:16.409Z,46.55
2022-08-30T15:52:04.417Z,46.99
2022-08-30T15:54:50.158Z,47.23
2022-08-30T15:57:35.332Z,48.05
2022-08-30T16:00:20.493Z,47.71
2022-08-30T16:03:05.887Z,48.21
2022-08-30T16:05:51.068Z,47.92
2022-08-30T16:08:38.613Z,48.26
2022-08-30T16:11:25.645Z,48.23
2022-08-30T16:14:11.539Z,48.48
2022-08-30T16:16:57.443Z,48.72
2022-08-30T16:19:42.632Z,48.74
2022-08-30T16:22:28.029Z,47.95
2022-08-30T16:25:13.994Z,48.97
2022-08-30T16:27:58.878Z,49.32
2022-08-30T16:30:44.029Z,48.87
2022-08-30T16:33:31.525Z,48.91
2022-08-30T16:36:18.253Z,52.11
2022-08-30T16:39:05.851Z,51.72
2022-08-30T16:41:53.838Z,51.31
2022-08-30T16:44:40.262Z,52.24
2022-08-30T16:47:25.814Z,52.12
2022-08-30T16:50:11.857Z,51.18
2022-08-30T16:52:56.922Z,50.64
2022-08-30T16:55:42.175Z,50.60
2022-08-30T16:58:27.472Z,50.66
2022-08-30T17:01:14.178Z,51.12
2022-08-30T17:03:59.975Z,51.56
2022-08-30T17:06:44.992Z,51.88
2022-08-30T17:09:30.789Z,52.41
2022-08-30T17:12:15.925Z,52.96
2022-08-30T17:15:01.756Z,53.32
2022-08-30T17:17:51.019Z,53.97
2022-08-30T17:20:38.008Z,54.62
2022-08-30T17:23:23.317Z,54.46
2022-08-30T17:26:09.373Z,54.46
2022-08-30T17:28:54.409Z,53.77
2022-08-30T17:31:41.668Z,53.73
2022-08-30T17:34:28.010Z,53.90
2022-08-30T17:37:13.406Z,53.94
2022-08-30T17:40:00.567Z,54.39
2022-08-30T17:42:45.941Z,55.03
2022-08-30T17:45:32.906Z,55.66
2022-08-30T17:48:19.155Z,56.17
2022-08-30T17:51:04.378Z,56.29
2022-08-30T17:53:49.370Z,56.65
2022-08-30T17:56:35.683Z,57.19
2022-08-30T17:59:25.430Z,57.79
2022-08-30T18:02:13.420Z,58.60
2022-08-30T18:05:00.127Z,58.65
2022-08-30T18:07:44.981Z,59.21
2022-08-30T18:10:34.368Z,59.84
2022-08-30T18:13:19.904Z,60.10
2022-08-30T18:16:05.319Z,60.04
2022-08-30T18:18:55.229Z,60.50
2022-08-30T18:21:42.650Z,61.10
2022-08-30T18:24:27.843Z,62.11
2022-08-30T18:27:13.479Z,62.12
2022-08-30T18:29:58.602Z,63.07
2022-08-30T18:32:44.425Z,63.29
2022-08-30T18:35:29.613Z,64.26
2022-08-30T18:38:17.547Z,64.69
2022-08-30T18:41:07.261Z,65.73
2022-08-30T18:44:06.030Z,65.96
2022-08-30T18:47:01.381Z,66.34
2022-08-30T18:49:46.501Z,67.24
2022-08-30T18:52:32.592Z,67.51
2022-08-30T18:55:17.603Z,68.12
2022-08-30T18:58:03.426Z,68.91
2022-08-30T19:00:49.073Z,69.44
2022-08-30T19:03:35.256Z,69.82
2022-08-30T19:06:20.472Z,69.82
2022-08-30T19:09:09.003Z,70.59
2022-08-30T19:11:54.888Z,70.97
2022-08-30T19:14:40.339Z,72.11
2022-08-30T19:17:26.406Z,71.99
2022-08-30T19:20:14.922Z,72.51
2022-08-30T19:23:19.587Z,72.81
2022-08-30T19:26:05.369Z,73.22
2022-08-30T19:28:50.273Z,73.89
2022-08-30T19:31:36.692Z,74.53
2022-08-30T19:34:21.964Z,74.83
2022-08-30T19:37:07.030Z,74.38
2022-08-30T19:39:52.817Z,74.92
2022-08-30T19:42:43.371Z,75.39
2022-08-30T19:45:31.782Z,75.87
2022-08-30T19:48:22.158Z,76.45
2022-08-30T19:51:08.650Z,76.46
2022-08-30T19:53:53.712Z,76.79
2022-08-30T19:56:43.014Z,77.08
2022-08-30T19:59:28.590Z,76.91
2022-08-30T20:02:14.727Z,76.91
2022-08-30T20:05:00.771Z,77.41
2022-08-30T20:07:46.241Z,77.62
2022-08-30T20:10:31.338Z,78.15
2022-08-30T20:13:16.786Z,77.88
2022-08-30T20:16:02.716Z,78.17
2022-08-30T20:18:49.572Z,78.55
2022-08-30T20:21:36.325Z,78.89
2022-08-30T20:24:22.481Z,78.97
2022-08-30T20:27:07.633Z,79.38
2022-08-30T20:29:52.841Z,79.53
2022-08-30T20:32:39.180Z,80.14
2022-08-30T20:35:24.559Z,79.69
2022-08-30T20:38:10.524Z,79.66
2022-08-30T20:40:58.523Z,80.14
2022-08-30T20:43:44.032Z,80.50
2022-08-30T20:46:33.862Z,80.28
2022-08-30T20:49:20.307Z,80.13
2022-08-30T20:52:06.089Z,80.17
2022-08-30T20:54:54.881Z,80.49
2022-08-30T20:57:40.495Z,80.40
2022-08-30T21:00:26.547Z,80.94
2022-08-30T21:03:26.539Z,81.29
2022-08-30T21:06:13.560Z,81.82
2022-08-30T21:08:58.916Z,81.80
2022-08-30T21:11:44.614Z,81.43
2022-08-30T21:14:29.894Z,81.63
2022-08-30T21:17:14.750Z,80.86
2022-08-30T21:20:00.163Z,81.63
2022-08-30T21:22:45.433Z,81.94
2022-08-30T21:25:33.162Z,82.56
2022-08-30T21:28:18.512Z,82.64
2022-08-30T21:31:15.735Z,82.70
2022-08-30T21:34:01.177Z,83.09
2022-08-30T21:36:47.009Z,83.43
2022-08-30T21:39:32.272Z,83.44
2022-08-30T21:42:18.228Z,83.77
2022-08-30T21:45:03.618Z,83.78
2022-08-30T21:47:48.685Z,84.04
2022-08-30T21:50:34.645Z,84.46
2022-08-30T21:53:20.038Z,84.76
2022-08-30T21:56:21.514Z,85.42
2022-08-30T21:59:08.333Z,84.96
2022-08-30T22:01:53.263Z,85.33
2022-08-30T22:04:40.320Z,85.10
2022-08-30T22:07:25.524Z,85.45
2022-08-30T22:10:12.694Z,85.72
2022-08-30T22:12:57.987Z,85.11
2022-08-30T22:15:43.180Z,85.15
2022-08-30T22:18:28.384Z,85.77
2022-08-30T22:21:17.596Z,85.99
2022-08-30T22:24:03.785Z,85.91
2022-08-30T22:26:48.833Z,86.12
2022-08-30T22:29:35.091Z,85.97
2022-08-30T22:32:21.089Z,86.13
2022-08-30T22:35:06.553Z,86.97
2022-08-30T22:37:53.191Z,86.33
2022-08-30T22:40:45.207Z,87.27
2022-08-30T22:43:30.917Z,87.38
2022-08-30T22:46:18.272Z,87.71
2022-08-30T22:49:18.549Z,87.52
2022-08-30T22:52:04.038Z,87.54
2022-08-30T22:54:49.450Z,87.53
2022-08-30T22:57:39.140Z,88.52
2022-08-30T23:00:24.513Z,88.51
2022-08-30T23:03:11.229Z,88.15
2022-08-30T23:05:56.399Z,88.60
2022-08-30T23:08:41.730Z,88.58
2022-08-30T23:11:28.192Z,88.61
2022-08-30T23:14:15.726Z,88.96
2022-08-30T23:17:01.880Z,88.82
2022-08-30T23:19:46.862Z,89.08
2022-08-30T23:22:32.616Z,88.47
2022-08-30T23:25:41.750Z,88.96
2022-08-30T23:28:48.180Z,89.52
2022-08-30T23:31:52.260Z,88.89
2022-08-30T23:34:56.031Z,88.34
2022-08-30T23:38:00.455Z,88.29
2022-08-30T23:41:04.253Z,87.54
2022-08-30T23:44:08.065Z,87.84
2022-08-30T23:47:11.966Z,87.64
2022-08-30T23:50:15.713Z,88.47
2022-08-30T23:53:20.006Z,87.26
2022-08-30T23:56:23.533Z,87.73
2022-08-30T23:59:27.120Z,87.75
